Airfield :
LOGIN :

Register | Disclaimer

   EN    FR    IT 

 










Legend :    VFR   Marginal VFR   IFR   Intensive IFR   Very Intensive IFR
Visi :
Ceiling :
>= 8 km
>= 3000ft
5 to 8 km
1000 to 3000 ft
1500m to 5 km
500 to 1000 ft
800 to 1500m
200 to 500 ft
< 800m
< 200 ft
Symbols :   Thunderstorms  Fog  Heavy snow  Heavy precipitations  Wind > 20 kt
SIGMETs :     Misc.  Thunderstorms  Icing  Turbulence  Mountain Waves  Volcanic Ashes







- Airport Elevation : 17 ft
- IATA code : MPL
- Download approach charts


LFMT - Montpellier Méditerranée

CURRENT METAR :
  • 212300Z AUTO 03005KT 9999 FEW022 SCT029 BKN036 19/15 Q1013 NOSIG

EXPIRED METARs :
  • 212230Z AUTO 05008KT 9999 BKN024 BKN030 OVC036 18/15 Q1013 NOSIG
  • 212200Z AUTO 03006KT 9999 BKN024 OVC032 19/15 Q1014 NOSIG
  • 212130Z AUTO 04007KT 9999 OVC025 18/15 Q1014 NOSIG
  • 212100Z AUTO 03008KT 9999 BKN025 BKN033 OVC042 18/15 Q1014 NOSIG

TAF TAF LFMT
Valid from the 21 at 21:00 until the 22 at 21:00 UTC


212000Z 2121/2221 04010KT 9999 BKN020
BECMG 2210/2212 18010KT
BECMG 2213/2215 VRB05KT
TEMPO 2202/2216 5000 RA BKN014
BECMG 2217/2219 32012KT CAVOK
ATIS : +33 4 67 13 11 70
No reported NOTAMs for that airfield.



MET'MAP, your aeronautical weather chart ! - Copyright ORBIFLY December 2007 - Disclaimer

ORBIFLY MET'MAP TEAM :

Programming & Development : Alexandra Zaïnal
Concept & Development : Baudouin d'Aumeries
Co-Development & Prog : Marc-Olivier Méhu
Technical & hardware support : Manuel Goepfert

Contact : metmap@orbifly.com




SOURCES & CREDITS :

   NOAA